Terminal Aerodrome Forecast
Issued by NWS Charleston, WV

Current Version | Previous Version | Graphics & Text | Print | Product List | Glossary On
Versions: 1 2 3 4 5 6 7 8 9 10 11 12 13 14 15 16 17 18 19 20 21 22
000
FTUS41 KRLX 221100
TAFBKW
TAF
KBKW 221125Z 2212/2312 25004KT P6SM OVC060
     FM221500 27009G18KT P6SM OVC040
     FM221600 28011G17KT 5SM -SHRA OVC045
     FM221800 29012G19KT P6SM VCSH OVC040
     FM222000 29014G25KT 6SM -SHRA OVC040
     FM222200 31008G19KT P6SM SCT035=

USA.gov is the U.S. government's official web portal to all federal, state and local government web resources and services.